Portada
METAR-TAF:

METAR-TAF

Aeropuertos :

Aeropuerto de Logroño-Agoncillo

Logroño, España

latitud: 42-27N, longitud: 002-20W, altitud: 353 m

Observación

El informe se hizo hace 33 minutos, a las 12:00 UTC
Viento 11 kt del oeste-suroeste, variando entre sur-suroeste y oeste-noroeste
Temperatura 18°C
Humedad 52%
Presión 1017 hPa
Visibilidad 10 km o más
Nubes dispersas a una altura de 4100 ft

METAR: LELO 261200Z 25011KT 210V290 9999 SCT041 18/08 Q1017

Hora: 14:33 (12:33 UTC)

Pronóstico

El informe se hizo hace 4 horas y 33 minutos, a las 08:00 UTC
Pronóstico válido del 26 a las 09 UTC al 27 a las 09 UTC
Viento 5 kt del oeste
Visibilidad 10 km o más
Nubes dispersas a una altura de 3300 ft
Temporalmente
del 26 a las 13 UTC al 26 a las 18 UTC
Viento 10 kt del norte-noroeste

TAF: LELO 260800Z 2609/2709 27005KT 9999 SCT033 TX22/2615Z TN11/2706Z TEMPO 2613/2618 33010KT

Observaciones y pronósticos meteorológicos de más de 4000 aeropuertos (mensajes METAR y TAF).

Los puntos amarillos y rojos representan las estaciones disponibles.

Ponga el ratón en el punto deseado para ver el nombre de la estación.

Haga clic para ver las observaciones y los pronósticos meteorológicos.

Para cambiar el mapa : haga clic en los botones verdes con una cruz de color negro para hacer un zoom, en el botón verde con un guión para alejar o en las flechas verdes para mapas adyacentes.


METAR-TAF: